Time;durP1;ratioP1;P1;durP2;ratioP2;P2;SDS_P1;SDS_P2;PMS_P1;PMS_P2;Temp;Humidity;BMP_temperature;BMP_pressure;BME280_temperature;BME280_humidity;BME280_pressure;Samples;Min_cycle;Max_cycle;Signal;HPM_P1;HPM_P2
2022/03/12 00:00:02;;;;;;;30.38;22.05;;;11.50;99.90;;;;;;5056586;28;20037;-74
2022/03/12 00:02:32;;;;;;;27.45;20.88;;;11.50;99.90;;;;;;5032149;28;20934;-72
2022/03/12 00:04:59;;;;;;;29.63;21.20;;;11.50;99.90;;;;;;5016166;28;20037;-72
2022/03/12 00:07:27;;;;;;;32.05;22.08;;;11.50;99.90;;;;;;5044739;28;20037;-73
2022/03/12 00:09:54;;;;;;;33.90;23.20;;;11.60;99.90;;;;;;5030961;28;20106;-73
2022/03/12 00:12:21;;;;;;;37.40;23.98;;;11.60;99.90;;;;;;5026010;28;20048;-73
2022/03/12 00:14:48;;;;;;;35.03;21.95;;;11.60;99.90;;;;;;5025084;28;20046;-73
2022/03/12 00:17:17;;;;;;;30.88;18.83;;;11.60;99.90;;;;;;5013344;28;20510;-72
2022/03/12 00:19:43;;;;;;;26.35;18.05;;;11.50;99.90;;;;;;5038440;28;20549;-73
2022/03/12 00:22:12;;;;;;;33.97;20.33;;;11.50;99.90;;;;;;5045904;28;20033;-73
2022/03/12 00:24:40;;;;;;;27.92;18.67;;;11.50;99.90;;;;;;5048239;28;20098;-73
2022/03/12 00:27:09;;;;;;;28.08;19.98;;;11.40;99.90;;;;;;5033034;28;20032;-74
2022/03/12 00:29:36;;;;;;;31.38;21.00;;;11.40;99.90;;;;;;5048453;28;20033;-73
2022/03/12 00:32:03;;;;;;;37.15;23.70;;;11.40;99.90;;;;;;5068386;28;20052;-73
2022/03/12 00:34:30;;;;;;;32.75;22.35;;;11.50;99.90;;;;;;5048255;28;20055;-72
2022/03/12 00:36:55;;;;;;;37.67;24.35;;;11.50;99.90;;;;;;5050345;28;20098;-72
2022/03/12 00:39:21;;;;;;;32.03;21.00;;;11.50;99.90;;;;;;5054669;28;20044;-72
2022/03/12 00:41:47;;;;;;;30.95;21.25;;;11.50;99.90;;;;;;5037409;28;20037;-73
2022/03/12 00:44:17;;;;;;;37.00;22.30;;;11.50;99.90;;;;;;5053539;28;20098;-72
2022/03/12 00:46:43;;;;;;;30.42;21.73;;;11.50;99.90;;;;;;5053858;28;20044;-73
2022/03/12 00:49:09;;;;;;;34.63;20.63;;;11.60;99.90;;;;;;5057445;28;20476;-72
2022/03/12 00:51:38;;;;;;;31.42;20.98;;;11.60;99.90;;;;;;5052818;28;20087;-72
2022/03/12 00:54:04;;;;;;;35.75;21.35;;;11.60;99.90;;;;;;5053451;28;20040;-71
2022/03/12 00:56:30;;;;;;;33.38;20.90;;;11.60;99.90;;;;;;5055720;28;20032;-72
2022/03/12 00:58:57;;;;;;;28.60;20.08;;;11.60;99.90;;;;;;5056542;28;20499;-73
2022/03/12 01:01:25;;;;;;;31.58;19.73;;;11.70;99.90;;;;;;5051694;28;20048;-72
2022/03/12 01:03:50;;;;;;;31.42;19.25;;;11.60;99.90;;;;;;5050703;28;20044;-72
2022/03/12 01:06:18;;;;;;;31.95;20.85;;;11.70;99.90;;;;;;5068034;28;20032;-72
2022/03/12 01:08:46;;;;;;;30.60;17.92;;;11.60;99.90;;;;;;5056453;28;20048;-71
2022/03/12 01:11:13;;;;;;;27.13;17.98;;;11.70;99.90;;;;;;5069524;28;20044;-71
2022/03/12 01:13:39;;;;;;;21.80;14.68;;;11.60;99.90;;;;;;5053646;28;20033;-71
2022/03/12 01:16:06;;;;;;;24.67;13.10;;;11.60;99.90;;;;;;5066936;28;20144;-72
2022/03/12 01:18:35;;;;;;;23.77;13.90;;;11.60;99.90;;;;;;5052566;28;20045;-71
2022/03/12 01:21:20;;;;;;;16.90;10.70;;;11.60;99.90;;;;;;5073546;28;20398;-71
2022/03/12 01:23:49;;;;;;;21.98;13.07;;;11.60;99.90;;;;;;5043512;28;20052;-71
2022/03/12 01:26:17;;;;;;;21.15;12.60;;;11.50;99.90;;;;;;5051627;28;20044;-72
2022/03/12 01:28:44;;;;;;;18.63;11.27;;;11.60;99.90;;;;;;5055737;28;20075;-72
2022/03/12 01:31:10;;;;;;;19.67;11.20;;;11.50;99.90;;;;;;5028064;28;20048;-72
2022/03/12 01:33:37;;;;;;;24.00;13.35;;;11.50;99.90;;;;;;5052929;28;20041;-71
2022/03/12 01:36:05;;;;;;;19.73;13.07;;;11.60;99.90;;;;;;5042974;28;20416;-72
2022/03/12 01:38:48;;;;;;;24.42;13.60;;;11.60;99.90;;;;;;5029502;28;20041;-71
2022/03/12 01:41:38;;;;;;;25.20;13.63;;;11.70;99.90;;;;;;5066692;28;20055;-72
2022/03/12 01:44:05;;;;;;;21.98;13.38;;;11.70;99.90;;;;;;5049270;28;20515;-73
2022/03/12 01:46:45;;;;;;;28.08;13.80;;;11.60;99.90;;;;;;5057805;28;20143;-71
2022/03/12 01:49:22;;;;;;;18.60;12.52;;;11.60;99.90;;;;;;5040335;28;20052;-71
2022/03/12 01:51:51;;;;;;;22.73;12.95;;;11.60;99.90;;;;;;5053886;28;20055;-72
2022/03/12 01:54:28;;;;;;;22.10;11.32;;;11.60;99.90;;;;;;5038953;28;20093;-71
2022/03/12 01:56:56;;;;;;;27.88;15.02;;;11.50;99.90;;;;;;5056390;28;20071;-71
2022/03/12 01:59:23;;;;;;;22.27;13.30;;;11.50;99.90;;;;;;5043945;28;20044;-71
2022/03/12 02:01:52;;;;;;;27.10;14.90;;;11.50;99.90;;;;;;5057134;28;20028;-72
2022/03/12 02:04:29;;;;;;;31.35;14.57;;;11.60;99.90;;;;;;5053349;28;20049;-72
2022/03/12 02:06:58;;;;;;;34.00;16.27;;;11.60;99.90;;;;;;5073839;28;20029;-72
2022/03/12 02:09:24;;;;;;;27.52;15.45;;;11.60;99.90;;;;;;5073265;28;20463;-71
2022/03/12 02:11:51;;;;;;;32.20;15.88;;;11.60;99.90;;;;;;5075224;28;20044;-72
2022/03/12 02:14:25;;;;;;;33.25;18.25;;;11.60;99.90;;;;;;5071524;28;20036;-72
2022/03/12 02:16:53;;;;;;;20.30;13.13;;;11.60;99.90;;;;;;5072521;28;20048;-71
2022/03/12 02:19:21;;;;;;;21.92;14.48;;;11.60;99.90;;;;;;5073205;28;20055;-72
2022/03/12 02:22:15;;;;;;;53.70;17.83;;;11.60;99.90;;;;;;5057422;28;20131;-72
2022/03/12 02:24:42;;;;;;;215.50;35.35;;;11.50;99.90;;;;;;5051710;28;20120;-73
2022/03/12 02:27:10;;;;;;;96.40;25.25;;;11.50;99.90;;;;;;5054001;28;20059;-72
2022/03/12 02:29:37;;;;;;;116.65;23.60;;;11.40;99.90;;;;;;5049649;28;20093;-73
2022/03/12 02:32:09;;;;;;;50.83;17.85;;;11.30;99.90;;;;;;5046569;28;20146;-73
2022/03/12 02:34:48;;;;;;;14.10;7.00;;;11.30;99.90;;;;;;5037929;28;20266;-73
2022/03/12 02:37:33;;;;;;;59.60;15.15;;;11.20;99.90;;;;;;5056887;28;20037;-72
2022/03/12 02:40:01;;;;;;;32.83;13.15;;;11.20;99.90;;;;;;5057524;28;20410;-72
2022/03/12 02:42:28;;;;;;;17.52;4.55;;;11.30;99.90;;;;;;5078097;28;20028;-72
2022/03/12 02:44:55;;;;;;;16.30;8.88;;;11.40;99.90;;;;;;5076417;28;20048;-72
2022/03/12 02:47:23;;;;;;;29.25;14.45;;;11.30;99.90;;;;;;5051043;28;20025;-72
2022/03/12 02:49:56;;;;;;;34.15;16.90;;;11.30;99.90;;;;;;5057505;28;20044;-73
2022/03/12 02:52:25;;;;;;;61.85;27.60;;;11.40;99.90;;;;;;5071396;28;20040;-72
2022/03/12 02:54:51;;;;;;;73.60;29.98;;;11.70;99.90;;;;;;5056239;28;20043;-72
2022/03/12 02:57:22;;;;;;;66.75;28.65;;;11.90;99.90;;;;;;5059991;28;20040;-73
2022/03/12 02:59:50;;;;;;;89.25;35.47;;;11.90;99.90;;;;;;5080816;28;20047;-73
2022/03/12 03:02:16;;;;;;;86.60;34.28;;;12.20;99.90;;;;;;5076256;28;20036;-72
2022/03/12 03:04:42;;;;;;;90.40;34.83;;;12.20;99.90;;;;;;5060711;28;20032;-73
2022/03/12 03:07:11;;;;;;;83.75;34.92;;;12.10;99.90;;;;;;5066259;28;20532;-73
2022/03/12 03:09:38;;;;;;;74.18;30.80;;;12.20;99.90;;;;;;5058097;28;20112;-73
2022/03/12 03:12:09;;;;;;;68.50;31.70;;;12.20;99.90;;;;;;5058386;28;20033;-73
2022/03/12 03:14:42;;;;;;;64.47;29.67;;;12.20;99.90;;;;;;5061508;28;20153;-73
2022/03/12 03:17:11;;;;;;;74.43;31.42;;;12.10;99.90;;;;;;5054120;28;20043;-73
2022/03/12 03:19:38;;;;;;;82.90;36.13;;;12.00;99.90;;;;;;5053414;28;20463;-72
2022/03/12 03:22:05;;;;;;;86.40;35.50;;;12.30;99.90;;;;;;5053266;28;20453;-72
2022/03/12 03:24:31;;;;;;;84.90;35.47;;;12.10;99.90;;;;;;5060646;28;20040;-71
2022/03/12 03:26:59;;;;;;;98.55;41.75;;;12.30;99.90;;;;;;5051802;28;20691;-72
2022/03/12 03:29:27;;;;;;;75.55;33.20;;;12.20;99.90;;;;;;5053724;28;20047;-72
2022/03/12 03:31:54;;;;;;;120.45;43.60;;;12.20;99.90;;;;;;5040876;28;20075;-73
2022/03/12 03:34:21;;;;;;;84.78;36.20;;;12.10;99.90;;;;;;5054710;28;20048;-73
2022/03/12 03:36:47;;;;;;;93.80;35.65;;;12.20;99.90;;;;;;5055900;28;20037;-73
2022/03/12 03:39:14;;;;;;;81.30;35.03;;;12.30;99.90;;;;;;5055043;28;20043;-73
2022/03/12 03:41:40;;;;;;;106.82;42.55;;;12.30;99.90;;;;;;5058605;28;20051;-73
2022/03/12 03:44:06;;;;;;;103.97;41.00;;;12.20;99.90;;;;;;5054685;28;20497;-73
2022/03/12 03:46:33;;;;;;;130.85;46.42;;;12.30;99.90;;;;;;5059623;28;20037;-72
2022/03/12 03:48:59;;;;;;;97.65;38.13;;;12.20;99.90;;;;;;5055064;28;20523;-73
2022/03/12 03:51:25;;;;;;;106.18;40.50;;;12.40;99.90;;;;;;5044608;28;20051;-73
2022/03/12 03:53:51;;;;;;;73.38;33.67;;;12.20;99.90;;;;;;5056255;28;20115;-73
2022/03/12 03:56:18;;;;;;;73.60;33.42;;;12.30;99.90;;;;;;5054368;28;20456;-73
2022/03/12 03:58:44;;;;;;;97.38;39.35;;;12.30;99.90;;;;;;5050749;28;20043;-72
2022/03/12 04:01:14;;;;;;;83.65;36.22;;;12.30;99.90;;;;;;5057124;28;20041;-73
2022/03/12 04:03:48;;;;;;;115.82;43.05;;;12.20;99.90;;;;;;5060991;28;20396;-74
2022/03/12 04:06:18;;;;;;;128.07;43.42;;;12.30;99.90;;;;;;5052073;28;20079;-73
2022/03/12 04:08:45;;;;;;;83.82;35.65;;;12.10;99.90;;;;;;5070377;28;20078;-73
2022/03/12 04:11:20;;;;;;;123.22;45.33;;;12.30;99.90;;;;;;5059568;28;20573;-74
2022/03/12 04:13:47;;;;;;;84.03;35.85;;;12.40;99.90;;;;;;5069368;28;20041;-72
2022/03/12 04:16:13;;;;;;;83.50;36.15;;;12.10;99.90;;;;;;5055226;28;20446;-74
2022/03/12 04:18:43;;;;;;;91.72;37.03;;;12.10;99.90;;;;;;5057044;28;20037;-73
2022/03/12 04:21:10;;;;;;;91.32;36.80;;;12.10;99.90;;;;;;5054822;28;20072;-73
2022/03/12 04:23:36;;;;;;;32.53;16.92;;;12.10;99.90;;;;;;5065104;28;20048;-74
2022/03/12 04:26:02;;;;;;;33.60;17.52;;;11.80;99.90;;;;;;5052848;28;20091;-73
2022/03/12 04:28:32;;;;;;;38.80;21.88;;;11.60;99.90;;;;;;5059135;28;20121;-73
2022/03/12 04:31:00;;;;;;;42.95;21.50;;;11.80;99.90;;;;;;5055219;28;20043;-73
2022/03/12 04:33:26;;;;;;;57.03;27.15;;;11.90;99.90;;;;;;5056421;28;20071;-73
2022/03/12 04:35:53;;;;;;;43.15;22.35;;;11.80;99.90;;;;;;5037097;28;20028;-73
2022/03/12 04:38:19;;;;;;;34.03;18.33;;;11.80;99.90;;;;;;5054838;28;20033;-74
2022/03/12 04:40:46;;;;;;;25.80;12.60;;;11.80;99.90;;;;;;5041984;28;20048;-74
2022/03/12 04:43:12;;;;;;;28.50;16.48;;;11.60;99.90;;;;;;5044412;28;20120;-73
2022/03/12 04:45:42;;;;;;;26.48;14.25;;;11.70;99.90;;;;;;5053935;28;20393;-73
2022/03/12 04:48:10;;;;;;;33.53;15.05;;;11.60;99.90;;;;;;5046809;28;20032;-74
2022/03/12 04:50:36;;;;;;;25.95;14.45;;;11.50;99.90;;;;;;5046124;28;20645;-74
2022/03/12 04:53:02;;;;;;;36.05;14.63;;;11.40;99.90;;;;;;5038407;28;20407;-73
2022/03/12 04:55:29;;;;;;;67.68;22.02;;;11.50;99.90;;;;;;5060209;28;20566;-73
2022/03/12 04:57:56;;;;;;;36.58;20.95;;;11.50;99.90;;;;;;5060504;28;20059;-73
2022/03/12 05:00:28;;;;;;;45.38;23.17;;;11.70;99.90;;;;;;5038791;28;20053;-74
2022/03/12 05:03:03;;;;;;;31.73;15.98;;;11.80;99.90;;;;;;5055954;28;20404;-74
2022/03/12 05:05:31;;;;;;;39.33;22.27;;;11.80;99.90;;;;;;5052122;28;20119;-74
2022/03/12 05:07:58;;;;;;;68.97;31.08;;;11.70;99.90;;;;;;5063127;28;20080;-74
2022/03/12 05:10:27;;;;;;;73.53;34.22;;;11.80;99.90;;;;;;5074607;28;20101;-74
2022/03/12 05:13:00;;;;;;;44.65;22.70;;;12.20;99.90;;;;;;5058077;28;20499;-72
2022/03/12 05:15:40;;;;;;;40.63;18.98;;;12.00;99.90;;;;;;5072407;28;20124;-73
2022/03/12 05:18:11;;;;;;;37.78;17.80;;;11.90;99.90;;;;;;5061276;28;20465;-73
2022/03/12 05:20:48;;;;;;;26.65;15.20;;;11.80;99.90;;;;;;5064002;28;20075;-74
2022/03/12 05:23:16;;;;;;;23.20;11.38;;;11.70;99.90;;;;;;5047978;28;20036;-73
2022/03/12 05:25:42;;;;;;;18.50;8.70;;;11.60;99.90;;;;;;5057729;28;20480;-73
2022/03/12 05:28:10;;;;;;;17.25;6.35;;;11.20;99.90;;;;;;5056336;28;20040;-73
2022/03/12 05:30:36;;;;;;;18.40;6.53;;;10.60;99.90;;;;;;5055089;28;20036;-73
2022/03/12 05:33:04;;;;;;;13.57;6.30;;;10.60;99.90;;;;;;5055198;28;20045;-73
2022/03/12 05:35:30;;;;;;;14.25;6.70;;;10.70;99.90;;;;;;5054129;28;20102;-73
2022/03/12 05:37:55;;;;;;;20.25;8.70;;;10.60;99.90;;;;;;5053120;28;20373;-73
2022/03/12 05:40:25;;;;;;;16.45;8.48;;;10.70;99.90;;;;;;5051868;28;20140;-73
2022/03/12 05:42:53;;;;;;;13.07;5.88;;;11.00;99.90;;;;;;5052813;28;20052;-73
2022/03/12 05:45:19;;;;;;;11.68;4.90;;;10.70;99.90;;;;;;5065253;28;20060;-73
2022/03/12 05:47:47;;;;;;;14.70;6.10;;;10.50;99.90;;;;;;5052182;28;20037;-72
2022/03/12 05:50:13;;;;;;;15.93;6.43;;;10.40;99.90;;;;;;5051111;28;20106;-73
2022/03/12 05:52:45;;;;;;;9.95;5.53;;;10.30;99.90;;;;;;5043704;28;20045;-73
2022/03/12 05:55:12;;;;;;;16.88;7.38;;;10.40;99.90;;;;;;5055846;28;20037;-74
2022/03/12 05:57:39;;;;;;;14.35;6.28;;;10.40;99.90;;;;;;5061784;28;20127;-73
2022/03/12 06:00:11;;;;;;;19.15;9.55;;;10.40;99.90;;;;;;5051003;28;20044;-73
2022/03/12 06:02:46;;;;;;;16.63;9.35;;;10.70;99.90;;;;;;5069586;28;20551;-73
2022/03/12 06:05:14;;;;;;;32.80;14.35;;;10.70;99.90;;;;;;5040127;28;20072;-72
2022/03/12 06:07:45;;;;;;;16.13;9.90;;;10.60;99.90;;;;;;5057736;28;20239;-72
2022/03/12 06:10:15;;;;;;;20.33;9.98;;;10.70;99.90;;;;;;5061895;28;20032;-73
2022/03/12 06:12:43;;;;;;;21.38;9.70;;;10.80;99.90;;;;;;5057081;28;20041;-73
2022/03/12 06:15:14;;;;;;;20.45;11.80;;;10.80;99.90;;;;;;5054538;28;20040;-73
2022/03/12 06:17:40;;;;;;;21.55;11.98;;;10.90;99.90;;;;;;5052949;28;20326;-74
2022/03/12 06:20:10;;;;;;;21.35;11.82;;;10.80;99.90;;;;;;5047324;28;20063;-72
2022/03/12 06:22:37;;;;;;;22.77;14.75;;;11.00;99.90;;;;;;5054855;28;20033;-73
2022/03/12 06:25:05;;;;;;;26.23;13.43;;;11.00;99.90;;;;;;5067246;28;20037;-72
2022/03/12 06:27:31;;;;;;;21.95;13.57;;;10.90;99.90;;;;;;5048253;28;20465;-72
2022/03/12 06:29:57;;;;;;;24.88;13.70;;;10.90;99.90;;;;;;5041054;28;20041;-73
2022/03/12 06:32:23;;;;;;;17.40;11.15;;;11.00;99.90;;;;;;5067122;28;20450;-71
2022/03/12 06:34:49;;;;;;;22.25;12.95;;;11.10;99.90;;;;;;5077375;28;20041;-73
2022/03/12 06:37:16;;;;;;;21.65;12.50;;;10.90;99.90;;;;;;5066445;28;20590;-72
2022/03/12 06:39:42;;;;;;;26.63;14.18;;;11.00;99.90;;;;;;5059995;28;20055;-73
2022/03/12 06:42:08;;;;;;;28.27;15.50;;;11.20;99.90;;;;;;5057810;28;20033;-73
2022/03/12 06:44:38;;;;;;;29.05;15.32;;;11.00;99.90;;;;;;5058218;28;20056;-72
2022/03/12 06:47:09;;;;;;;22.15;12.73;;;11.10;99.90;;;;;;5074110;28;20118;-74
2022/03/12 06:49:37;;;;;;;23.88;13.80;;;11.20;99.90;;;;;;5048525;28;20025;-73
2022/03/12 06:52:05;;;;;;;16.13;10.55;;;11.10;99.90;;;;;;5057241;28;20121;-73
2022/03/12 06:54:31;;;;;;;16.85;11.27;;;11.10;99.90;;;;;;5059283;28;20126;-74
2022/03/12 06:56:57;;;;;;;22.70;13.60;;;11.00;99.90;;;;;;5054124;28;20043;-72
2022/03/12 06:59:23;;;;;;;19.90;12.85;;;11.10;99.90;;;;;;5042028;28;20449;-73
2022/03/12 07:01:49;;;;;;;20.77;13.32;;;11.10;99.90;;;;;;5053137;28;20121;-73
2022/03/12 07:04:16;;;;;;;25.77;14.48;;;11.00;99.90;;;;;;5053085;28;20063;-72
2022/03/12 07:06:42;;;;;;;23.83;14.00;;;11.00;99.90;;;;;;5056140;28;20154;-72
2022/03/12 07:09:08;;;;;;;31.77;17.05;;;11.00;99.90;;;;;;5057317;28;20036;-72
2022/03/12 07:11:34;;;;;;;25.77;15.00;;;11.10;99.90;;;;;;5060136;28;20372;-72
2022/03/12 07:14:00;;;;;;;17.10;12.15;;;11.30;99.90;;;;;;5058350;28;20033;-74
2022/03/12 07:16:26;;;;;;;28.52;15.82;;;11.30;99.90;;;;;;5061515;28;20586;-72
2022/03/12 07:18:52;;;;;;;25.17;14.65;;;11.20;99.90;;;;;;5048408;28;20033;-72
2022/03/12 07:21:18;;;;;;;31.10;17.30;;;11.20;99.90;;;;;;5042742;28;20040;-74
2022/03/12 07:23:44;;;;;;;28.60;17.02;;;11.20;99.90;;;;;;5045994;28;20043;-73
2022/03/12 07:26:10;;;;;;;29.30;16.98;;;11.00;99.90;;;;;;5052807;28;20044;-76
2022/03/12 07:28:36;;;;;;;29.98;15.30;;;10.90;99.90;;;;;;5055575;28;20041;-72
2022/03/12 07:31:02;;;;;;;22.85;11.40;;;11.00;99.90;;;;;;5043621;28;20489;-73
2022/03/12 07:33:28;;;;;;;26.65;15.02;;;11.10;99.90;;;;;;5059969;28;20484;-73
2022/03/12 07:35:55;;;;;;;26.05;13.55;;;11.10;99.90;;;;;;5054988;28;20047;-72
2022/03/12 07:38:21;;;;;;;18.48;12.25;;;11.00;99.90;;;;;;5037891;28;20067;-74
2022/03/12 07:40:47;;;;;;;20.88;11.45;;;11.00;99.90;;;;;;5051672;28;20051;-75
2022/03/12 07:43:13;;;;;;;15.45;9.20;;;10.90;99.90;;;;;;5037985;28;20037;-73
2022/03/12 07:45:38;;;;;;;15.15;9.07;;;10.70;99.90;;;;;;5058948;28;20046;-72
2022/03/12 07:48:07;;;;;;;13.48;9.13;;;10.70;99.90;;;;;;5059756;28;20041;-72
2022/03/12 07:50:34;;;;;;;15.38;7.72;;;11.00;99.90;;;;;;5056477;28;20060;-73
2022/03/12 07:53:00;;;;;;;9.13;6.45;;;10.70;99.90;;;;;;5054381;28;20057;-73
2022/03/12 07:55:26;;;;;;;15.80;9.02;;;10.60;99.90;;;;;;5052137;28;20048;-73
2022/03/12 07:57:52;;;;;;;10.70;6.78;;;10.80;99.90;;;;;;5048359;28;20036;-73
2022/03/12 08:00:18;;;;;;;15.50;8.27;;;10.60;99.90;;;;;;5055493;28;20508;-73
2022/03/12 08:02:46;;;;;;;21.20;11.80;;;10.70;99.90;;;;;;5055327;28;20056;-73
2022/03/12 08:05:23;;;;;;;14.40;8.82;;;11.00;99.90;;;;;;5052273;28;20029;-73
2022/03/12 08:07:50;;;;;;;20.02;11.20;;;10.90;99.90;;;;;;5044914;28;20040;-72
2022/03/12 08:10:16;;;;;;;26.23;12.50;;;10.80;99.90;;;;;;5056184;28;20044;-73
2022/03/12 08:12:43;;;;;;;18.63;12.75;;;11.00;99.90;;;;;;5055976;28;20435;-73
2022/03/12 08:15:12;;;;;;;22.75;13.30;;;10.80;99.90;;;;;;5044388;28;20147;-72
2022/03/12 08:17:39;;;;;;;32.22;15.63;;;10.80;99.90;;;;;;5056167;28;20068;-72
2022/03/12 08:20:06;;;;;;;40.00;18.90;;;11.00;99.90;;;;;;5049257;28;20040;-73
2022/03/12 08:22:32;;;;;;;24.42;13.77;;;11.00;99.90;;;;;;5057485;28;20135;-74
2022/03/12 08:24:58;;;;;;;21.45;13.20;;;10.80;99.90;;;;;;5060591;28;20029;-74
2022/03/12 08:27:25;;;;;;;24.60;12.50;;;10.90;99.90;;;;;;5052963;28;20472;-73
2022/03/12 08:29:50;;;;;;;27.98;15.98;;;10.90;99.90;;;;;;5042887;28;20044;-73
2022/03/12 08:32:16;;;;;;;18.88;13.30;;;10.90;99.90;;;;;;5058848;28;20102;-73
2022/03/12 08:34:42;;;;;;;19.15;12.07;;;11.00;99.90;;;;;;5055494;28;20036;-72
2022/03/12 08:37:09;;;;;;;26.08;13.57;;;10.90;99.90;;;;;;5062509;28;20036;-74
2022/03/12 08:39:35;;;;;;;32.78;16.48;;;10.90;99.90;;;;;;5042550;28;20033;-74
2022/03/12 08:42:02;;;;;;;28.10;14.95;;;11.00;99.90;;;;;;5045225;28;20059;-71
2022/03/12 08:44:28;;;;;;;21.83;13.43;;;11.20;99.90;;;;;;5037908;28;20040;-73
2022/03/12 08:46:54;;;;;;;26.55;14.48;;;11.00;99.90;;;;;;5063398;28;20044;-72
2022/03/12 08:49:19;;;;;;;30.80;16.75;;;11.10;99.90;;;;;;5037973;28;20079;-73
2022/03/12 08:51:46;;;;;;;21.95;13.00;;;11.10;99.90;;;;;;5054380;28;20126;-73
2022/03/12 08:54:11;;;;;;;26.63;15.02;;;11.30;99.90;;;;;;5053369;28;20471;-73
2022/03/12 08:56:38;;;;;;;28.55;16.73;;;11.10;99.90;;;;;;5064117;28;20127;-76
2022/03/12 08:59:04;;;;;;;23.08;15.90;;;11.30;99.90;;;;;;5071113;28;20036;-77
2022/03/12 09:01:31;;;;;;;20.83;15.10;;;11.20;99.90;;;;;;5038628;28;20056;-74
2022/03/12 09:03:57;;;;;;;22.50;16.08;;;11.20;99.90;;;;;;5041294;28;20080;-75
2022/03/12 09:06:26;;;;;;;22.70;16.13;;;11.40;99.90;;;;;;5040249;28;20048;-76
2022/03/12 09:08:53;;;;;;;28.17;18.38;;;11.30;99.90;;;;;;5067525;28;20382;-73
2022/03/12 09:11:19;;;;;;;32.40;19.67;;;11.30;99.90;;;;;;5038147;28;20040;-74
2022/03/12 09:13:49;;;;;;;24.50;15.73;;;11.60;99.90;;;;;;5058999;28;20136;-74
2022/03/12 09:16:16;;;;;;;19.77;13.02;;;11.60;99.90;;;;;;5045250;28;20044;-75
2022/03/12 09:18:44;;;;;;;21.92;15.23;;;11.60;99.90;;;;;;5046469;28;20068;-74
2022/03/12 09:21:10;;;;;;;24.92;14.68;;;11.40;99.90;;;;;;5065357;28;20391;-75
2022/03/12 09:23:36;;;;;;;19.42;12.07;;;11.60;99.90;;;;;;5060616;28;20078;-72
2022/03/12 09:26:03;;;;;;;23.83;12.73;;;11.50;99.90;;;;;;5058579;28;20037;-73
2022/03/12 09:28:29;;;;;;;38.75;16.35;;;11.60;99.90;;;;;;5053725;28;20029;-75
2022/03/12 09:30:55;;;;;;;42.40;17.02;;;11.50;99.90;;;;;;5052437;28;20037;-73
2022/03/12 09:33:22;;;;;;;47.92;20.15;;;11.60;99.90;;;;;;5040984;28;20112;-73
2022/03/12 09:35:55;;;;;;;51.20;19.00;;;11.40;99.90;;;;;;5052028;28;20041;-72
2022/03/12 09:38:23;;;;;;;43.97;18.40;;;11.60;99.90;;;;;;5073362;28;20040;-73
2022/03/12 09:40:48;;;;;;;27.25;14.40;;;11.50;99.90;;;;;;5057836;28;20483;-73
2022/03/12 09:43:15;;;;;;;28.85;12.85;;;11.30;99.90;;;;;;5055312;28;20050;-73
2022/03/12 09:45:41;;;;;;;21.70;9.93;;;11.50;99.90;;;;;;5054654;28;20467;-73
2022/03/12 09:48:08;;;;;;;36.40;14.55;;;11.50;99.90;;;;;;5052924;28;20064;-74
2022/03/12 09:50:34;;;;;;;20.05;12.27;;;11.40;99.90;;;;;;5050702;28;20045;-74
2022/03/12 09:53:01;;;;;;;30.73;15.50;;;11.40;99.90;;;;;;5053046;28;20045;-74
2022/03/12 09:55:27;;;;;;;18.30;12.70;;;11.40;99.90;;;;;;5058786;28;20040;-74
2022/03/12 09:57:53;;;;;;;20.70;12.95;;;11.40;99.90;;;;;;5036766;28;20156;-74
2022/03/12 10:00:19;;;;;;;16.45;10.23;;;11.50;99.90;;;;;;5057679;28;20127;-75
2022/03/12 10:02:46;;;;;;;14.10;10.82;;;11.30;99.90;;;;;;5038132;28;20039;-74
2022/03/12 10:05:13;;;;;;;17.35;12.13;;;11.40;99.90;;;;;;5054289;28;20395;-75
2022/03/12 10:07:42;;;;;;;24.77;14.90;;;11.40;99.90;;;;;;5059078;28;20036;-75
2022/03/12 10:10:14;;;;;;;22.63;13.25;;;11.70;99.90;;;;;;5052633;28;20044;-74
2022/03/12 10:12:40;;;;;;;16.87;9.70;;;11.60;99.90;;;;;;5042451;28;20425;-73
2022/03/12 10:15:06;;;;;;;11.10;8.70;;;11.60;99.90;;;;;;5063789;28;20032;-75
2022/03/12 10:17:32;;;;;;;9.38;6.07;;;11.60;99.90;;;;;;5045647;28;20048;-74
2022/03/12 10:19:58;;;;;;;6.25;4.38;;;11.40;99.90;;;;;;5060162;28;20037;-74
2022/03/12 10:22:25;;;;;;;4.50;3.17;;;11.30;99.90;;;;;;5033139;28;20406;-75
2022/03/12 10:24:51;;;;;;;4.63;3.38;;;11.30;99.90;;;;;;5057238;28;20123;-77
2022/03/12 10:27:17;;;;;;;6.10;3.72;;;11.10;99.90;;;;;;5053012;28;20144;-77
2022/03/12 10:29:43;;;;;;;5.30;3.88;;;11.20;99.90;;;;;;5063040;28;20036;-77
2022/03/12 10:32:26;;;;;;;6.07;3.90;;;11.10;99.90;;;;;;5055025;28;20030;-75
2022/03/12 10:34:53;;;;;;;;;;;11.20;99.90;;;;;;5057140;28;20090;-75
2022/03/12 10:37:32;;;;;;;7.07;3.97;;;11.40;99.90;;;;;;5037250;28;19917;-73
2022/03/12 10:40:09;;;;;;;7.82;4.82;;;11.30;99.90;;;;;;5070878;28;20041;-73
2022/03/12 10:42:37;;;;;;;10.30;5.75;;;11.20;99.90;;;;;;5055418;28;20029;-75
2022/03/12 10:45:09;;;;;;;7.07;5.75;;;11.20;99.90;;;;;;5053207;28;20040;-74
2022/03/12 10:47:45;;;;;;;11.05;7.03;;;11.50;99.90;;;;;;5034280;28;20365;-74
2022/03/12 10:50:15;;;;;;;9.07;6.38;;;11.30;99.90;;;;;;5056661;28;20074;-75
2022/03/12 10:52:49;;;;;;;8.57;6.95;;;11.50;99.90;;;;;;5034570;28;20105;-74
2022/03/12 10:55:36;;;;;;;11.45;7.90;;;11.40;99.90;;;;;;5025188;28;20044;-74
2022/03/12 10:58:12;;;;;;;9.02;7.32;;;11.40;99.90;;;;;;5036858;28;20048;-77
2022/03/12 11:00:45;;;;;;;8.73;6.57;;;11.40;99.90;;;;;;5051822;28;20044;-78
2022/03/12 11:03:21;;;;;;;11.45;6.25;;;11.60;99.90;;;;;;5030697;28;20041;-76
2022/03/12 11:05:50;;;;;;;7.93;5.53;;;11.50;99.90;;;;;;5035348;28;20737;-76
2022/03/12 11:08:21;;;;;;;8.18;5.78;;;11.30;99.90;;;;;;5026804;28;20569;-74
2022/03/12 11:11:01;;;;;;;8.85;5.88;;;11.50;99.90;;;;;;5043972;28;20033;-75
2022/03/12 11:13:47;;;;;;;10.13;6.65;;;11.40;99.90;;;;;;5051461;28;20052;-74
2022/03/12 11:16:24;;;;;;;12.60;6.97;;;11.30;99.90;;;;;;5046943;28;20060;-76
2022/03/12 11:18:57;;;;;;;7.18;5.57;;;11.50;99.90;;;;;;5040821;28;20040;-74
2022/03/12 11:21:37;;;;;;;8.07;5.82;;;11.40;99.90;;;;;;5035465;28;20041;-78
2022/03/12 11:24:17;;;;;;;9.52;6.35;;;11.20;99.90;;;;;;5058689;28;20041;-74
2022/03/12 11:26:46;;;;;;;11.85;6.13;;;11.30;99.90;;;;;;5039534;28;20136;-75
2022/03/12 11:29:13;;;;;;;11.40;6.50;;;11.10;99.90;;;;;;5049190;28;20133;-74
2022/03/12 11:31:53;;;;;;;8.15;6.38;;;11.30;99.90;;;;;;5033760;28;20683;-73
2022/03/12 11:34:30;;;;;;;9.10;6.40;;;11.40;99.90;;;;;;5056070;28;20139;-76
2022/03/12 11:37:09;;;;;;;7.32;5.20;;;11.20;99.90;;;;;;5047305;28;20040;-74
2022/03/12 11:39:55;;;;;;;9.40;6.55;;;11.20;99.90;;;;;;5046159;28;20048;-74
2022/03/12 11:42:32;;;;;;;7.10;6.05;;;11.50;99.90;;;;;;5031281;28;20064;-73
2022/03/12 11:45:01;;;;;;;8.20;5.97;;;11.30;99.90;;;;;;5052412;28;20091;-73
2022/03/12 11:47:33;;;;;;;10.60;5.85;;;11.30;99.90;;;;;;5053867;28;20140;-73
2022/03/12 11:50:03;;;;;;;7.60;5.57;;;11.40;99.90;;;;;;5027951;28;20068;-74
2022/03/12 11:52:31;;;;;;;6.82;4.90;;;11.30;99.90;;;;;;5050631;28;20090;-73
2022/03/12 11:55:01;;;;;;;6.43;4.30;;;11.30;99.90;;;;;;5048210;28;20029;-73
2022/03/12 11:57:30;;;;;;;6.65;5.00;;;11.30;99.90;;;;;;5068628;28;20134;-73
2022/03/12 11:59:57;;;;;;;7.10;5.18;;;11.20;99.90;;;;;;5059955;28;20037;-73
2022/03/12 12:02:24;;;;;;;9.43;6.00;;;11.20;99.90;;;;;;5060388;28;20514;-73
2022/03/12 12:04:52;;;;;;;8.40;5.65;;;11.60;99.90;;;;;;5065015;28;20033;-73
2022/03/12 12:07:19;;;;;;;7.38;5.32;;;11.50;99.90;;;;;;5046619;28;20032;-74
2022/03/12 12:09:45;;;;;;;12.35;6.55;;;11.40;99.90;;;;;;5056217;28;20067;-74
2022/03/12 12:12:13;;;;;;;7.13;5.47;;;11.60;99.90;;;;;;5056237;28;20426;-73
2022/03/12 12:14:43;;;;;;;10.27;5.65;;;11.50;99.90;;;;;;5028546;28;20045;-73
2022/03/12 12:17:10;;;;;;;7.40;5.75;;;11.50;99.90;;;;;;5040669;28;20039;-74
2022/03/12 12:19:37;;;;;;;9.57;6.10;;;11.40;99.90;;;;;;5048870;28;20063;-74
2022/03/12 12:22:04;;;;;;;9.30;6.50;;;11.30;99.90;;;;;;5064674;28;20048;-75
2022/03/12 12:24:43;;;;;;;9.85;6.32;;;11.40;99.90;;;;;;5066572;28;20045;-75
2022/03/12 12:27:12;;;;;;;5.28;4.32;;;11.30;99.90;;;;;;5057259;28;20090;-75
2022/03/12 12:29:47;;;;;;;7.60;4.97;;;11.60;99.90;;;;;;5042655;28;20037;-74
2022/03/12 12:32:18;;;;;;;8.00;5.63;;;11.30;99.90;;;;;;5054908;28;20506;-74
2022/03/12 12:35:03;;;;;;;6.40;4.63;;;11.60;99.90;;;;;;5047943;28;20056;-73
2022/03/12 12:37:54;;;;;;;7.57;4.10;;;11.60;99.90;;;;;;5035817;28;20070;-74